createdAt,value
2023-03-11T00:01:06.531Z,56.82
2023-03-11T00:03:35.329Z,56.22
2023-03-11T00:06:03.234Z,55.71
2023-03-11T00:08:31.449Z,55.87
2023-03-11T00:11:00.779Z,55.91
2023-03-11T00:13:29.427Z,56.06
2023-03-11T00:15:57.165Z,55.43
2023-03-11T00:18:27.468Z,55.73
2023-03-11T00:20:56.409Z,56.49
2023-03-11T00:23:24.317Z,56.24
2023-03-11T00:25:52.073Z,55.97
2023-03-11T00:28:19.753Z,55.27
2023-03-11T00:30:47.214Z,55.49
2023-03-11T00:33:16.066Z,56.40
2023-03-11T00:35:44.126Z,56.05
2023-03-11T00:38:17.989Z,56.60
2023-03-11T00:40:47.114Z,56.23
2023-03-11T00:43:15.255Z,55.94
2023-03-11T00:45:42.712Z,56.11
2023-03-11T00:48:09.826Z,56.06
2023-03-11T00:50:37.742Z,55.37
2023-03-11T00:53:05.475Z,54.86
2023-03-11T00:55:34.861Z,54.90
2023-03-11T00:58:07.097Z,54.44
2023-03-11T01:00:41.234Z,54.09
2023-03-11T01:03:09.981Z,54.13
2023-03-11T01:05:37.412Z,54.02
2023-03-11T01:08:04.984Z,53.75
2023-03-11T01:10:33.748Z,53.56
2023-03-11T01:13:02.189Z,53.50
2023-03-11T01:15:35.512Z,53.20
2023-03-11T01:18:04.323Z,53.21
2023-03-11T01:20:33.695Z,53.07
2023-03-11T01:23:01.072Z,52.78
2023-03-11T01:25:30.228Z,53.16
2023-03-11T01:27:59.433Z,53.21
2023-03-11T01:30:28.667Z,52.86
2023-03-11T01:32:58.074Z,52.96
2023-03-11T01:35:27.549Z,53.06
2023-03-11T01:37:54.787Z,53.95
2023-03-11T01:40:29.023Z,54.03
2023-03-11T01:42:58.208Z,55.14
2023-03-11T01:45:28.468Z,55.30
2023-03-11T01:47:56.023Z,55.04
2023-03-11T01:50:23.611Z,54.85
2023-03-11T01:52:50.925Z,55.39
2023-03-11T01:55:19.907Z,56.34
2023-03-11T01:57:47.978Z,56.99
2023-03-11T02:00:16.293Z,57.70
2023-03-11T02:02:50.426Z,57.70
2023-03-11T02:05:20.184Z,57.11
2023-03-11T02:07:49.133Z,57.92
2023-03-11T02:10:19.114Z,57.36
2023-03-11T02:12:49.083Z,58.28
2023-03-11T02:15:24.726Z,57.61
2023-03-11T02:17:52.832Z,57.88
2023-03-11T02:20:41.760Z,57.12
2023-03-11T02:23:14.599Z,57.79
2023-03-11T02:25:56.393Z,57.65
2023-03-11T02:28:24.407Z,57.91
2023-03-11T02:30:53.098Z,57.08
2023-03-11T02:33:20.713Z,56.85
2023-03-11T02:35:49.825Z,57.93
2023-03-11T02:38:17.278Z,57.78
2023-03-11T02:40:51.932Z,58.33
2023-03-11T02:43:28.110Z,57.51
2023-03-11T02:45:56.989Z,58.19
2023-03-11T02:48:24.842Z,58.38
2023-03-11T02:50:52.956Z,58.68
2023-03-11T02:53:20.806Z,58.81
2023-03-11T02:55:49.979Z,58.79
2023-03-11T02:58:20.313Z,57.99
2023-03-11T03:00:47.562Z,58.61
2023-03-11T03:03:14.760Z,58.39
2023-03-11T03:05:42.183Z,58.15
2023-03-11T03:08:09.742Z,58.26
2023-03-11T03:10:37.503Z,58.60
2023-03-11T03:13:05.139Z,58.09
2023-03-11T03:15:32.346Z,57.65
2023-03-11T03:18:00.480Z,57.61
2023-03-11T03:20:27.962Z,57.23
2023-03-11T03:22:58.793Z,56.84
2023-03-11T03:25:29.542Z,56.86
2023-03-11T03:27:59.292Z,56.50
2023-03-11T03:30:28.558Z,55.64
2023-03-11T03:32:57.087Z,55.91
2023-03-11T03:35:24.956Z,56.20
2023-03-11T03:38:13.625Z,55.89
2023-03-11T03:40:48.035Z,55.67
2023-03-11T03:43:18.282Z,55.95
2023-03-11T03:45:58.163Z,56.19
2023-03-11T03:48:30.442Z,56.26
2023-03-11T03:51:08.019Z,55.81
2023-03-11T03:53:37.556Z,56.81
2023-03-11T03:56:07.869Z,56.31
2023-03-11T03:58:36.178Z,55.64
2023-03-11T04:01:04.659Z,55.52
2023-03-11T04:03:35.370Z,55.78
2023-03-11T04:06:15.626Z,55.27
2023-03-11T04:08:44.140Z,55.13
2023-03-11T04:11:12.416Z,54.88
2023-03-11T04:13:40.570Z,54.53
2023-03-11T04:16:08.492Z,54.67
2023-03-11T04:18:36.810Z,54.68
2023-03-11T04:21:07.179Z,54.42
2023-03-11T04:23:34.910Z,55.11
2023-03-11T04:26:03.177Z,54.88
2023-03-11T04:28:30.779Z,54.71
2023-03-11T04:31:01.678Z,54.28
2023-03-11T04:33:36.066Z,53.91
2023-03-11T04:36:08.502Z,53.46
2023-03-11T04:38:38.373Z,53.84
2023-03-11T04:41:07.802Z,53.51
2023-03-11T04:43:38.454Z,53.60
2023-03-11T04:46:06.101Z,53.40
2023-03-11T04:48:34.333Z,53.28
2023-03-11T04:51:01.846Z,53.10
2023-03-11T04:53:30.046Z,53.03
2023-03-11T04:55:57.663Z,52.87
2023-03-11T04:58:25.665Z,53.14
2023-03-11T05:00:53.467Z,53.43
2023-03-11T05:03:22.148Z,53.57
2023-03-11T05:05:53.253Z,53.33
2023-03-11T05:08:26.653Z,53.44
2023-03-11T05:10:58.632Z,53.33
2023-03-11T05:13:35.128Z,53.56
2023-03-11T05:16:13.882Z,53.57
2023-03-11T05:18:44.654Z,53.52
2023-03-11T05:21:14.527Z,53.86
2023-03-11T05:23:46.790Z,53.91
2023-03-11T05:26:20.312Z,54.13
2023-03-11T05:28:48.299Z,54.72
2023-03-11T05:31:16.249Z,54.55
2023-03-11T05:33:43.566Z,54.58
2023-03-11T05:36:13.170Z,54.64
2023-03-11T05:38:43.109Z,54.97
2023-03-11T05:41:10.691Z,54.66
2023-03-11T05:43:38.950Z,54.63
2023-03-11T05:46:06.115Z,54.12
2023-03-11T05:48:34.504Z,53.92
2023-03-11T05:51:02.095Z,53.97
2023-03-11T05:53:29.149Z,53.96
2023-03-11T05:56:12.583Z,53.96
2023-03-11T05:58:59.165Z,53.92
2023-03-11T06:01:29.122Z,54.42
2023-03-11T06:03:56.526Z,54.81
2023-03-11T06:06:24.657Z,54.67
2023-03-11T06:08:52.029Z,55.30
2023-03-11T06:11:25.725Z,55.38
2023-03-11T06:13:54.942Z,55.55
2023-03-11T06:16:25.138Z,55.37
2023-03-11T06:18:53.567Z,55.01
2023-03-11T06:21:23.667Z,55.19
2023-03-11T06:23:51.055Z,54.77
2023-03-11T06:26:20.796Z,54.68
2023-03-11T06:28:49.141Z,54.89
2023-03-11T06:31:22.769Z,54.53
2023-03-11T06:33:50.425Z,54.69
2023-03-11T06:36:20.313Z,55.17
2023-03-11T06:38:48.756Z,55.07
2023-03-11T06:41:16.934Z,56.02
2023-03-11T06:43:45.423Z,56.18
2023-03-11T06:46:16.918Z,56.20
2023-03-11T06:48:49.184Z,56.15
2023-03-11T06:51:16.712Z,56.83
2023-03-11T06:53:44.187Z,57.40
2023-03-11T06:56:13.742Z,56.93
2023-03-11T06:58:48.709Z,57.02
2023-03-11T07:01:20.655Z,56.68
2023-03-11T07:03:49.938Z,56.44
2023-03-11T07:06:28.353Z,56.06
2023-03-11T07:09:02.976Z,55.41
2023-03-11T07:11:32.157Z,55.51
2023-03-11T07:14:06.675Z,55.24
2023-03-11T07:16:39.522Z,54.89
2023-03-11T07:19:12.883Z,54.29
2023-03-11T07:21:42.043Z,54.16
2023-03-11T07:24:12.753Z,53.85
2023-03-11T07:26:41.210Z,53.54
2023-03-11T07:29:10.228Z,53.23
2023-03-11T07:31:38.298Z,53.10
2023-03-11T07:34:11.718Z,52.49
2023-03-11T07:36:42.647Z,51.95
2023-03-11T07:39:14.897Z,51.32
2023-03-11T07:41:42.240Z,51.24
2023-03-11T07:44:15.741Z,51.11
2023-03-11T07:46:49.062Z,51.13
2023-03-11T07:49:16.608Z,50.83
2023-03-11T07:51:44.143Z,50.32
2023-03-11T07:54:12.940Z,49.83
2023-03-11T07:56:40.718Z,49.73
2023-03-11T07:59:09.644Z,49.47
2023-03-11T08:01:37.009Z,49.50
2023-03-11T08:04:06.522Z,49.57
2023-03-11T08:06:35.257Z,49.85
2023-03-11T08:09:05.595Z,50.02
2023-03-11T08:11:33.227Z,49.97
2023-03-11T08:14:00.493Z,50.01
2023-03-11T08:16:28.412Z,49.71
2023-03-11T08:18:56.027Z,49.66
2023-03-11T08:21:25.966Z,49.46
2023-03-11T08:23:56.840Z,49.31
2023-03-11T08:26:25.220Z,49.10
2023-03-11T08:28:52.476Z,49.01
2023-03-11T08:31:24.300Z,48.45
2023-03-11T08:33:54.220Z,48.88
2023-03-11T08:36:21.585Z,49.09
2023-03-11T08:38:48.941Z,48.87
2023-03-11T08:41:16.444Z,49.00
2023-03-11T08:43:44.682Z,49.51
2023-03-11T08:46:30.806Z,49.11
2023-03-11T08:49:01.026Z,49.75
2023-03-11T08:51:29.828Z,49.96
2023-03-11T08:53:57.086Z,50.45
2023-03-11T08:56:28.626Z,50.10
2023-03-11T08:58:55.967Z,50.02
2023-03-11T09:01:23.914Z,50.38
2023-03-11T09:03:51.559Z,50.43
2023-03-11T09:06:19.057Z,50.37
2023-03-11T09:08:47.166Z,50.65
2023-03-11T09:11:16.053Z,50.29
2023-03-11T09:13:43.715Z,49.81
2023-03-11T09:16:20.403Z,49.19
2023-03-11T09:18:49.362Z,48.05
2023-03-11T09:21:22.514Z,48.51
2023-03-11T09:23:49.939Z,48.40
2023-03-11T09:26:17.368Z,47.63
2023-03-11T09:28:49.448Z,47.60
2023-03-11T09:31:18.614Z,46.72
2023-03-11T09:33:47.102Z,47.37
2023-03-11T09:36:16.546Z,47.39
2023-03-11T09:38:44.305Z,48.07
2023-03-11T09:41:17.734Z,47.88
2023-03-11T09:43:47.933Z,47.07
2023-03-11T09:46:50.892Z,46.69
2023-03-11T09:49:28.407Z,46.63
2023-03-11T09:52:12.043Z,46.23
2023-03-11T09:54:52.984Z,45.78
2023-03-11T09:57:25.900Z,45.90
2023-03-11T09:59:54.786Z,45.92
2023-03-11T10:02:26.959Z,44.23
2023-03-11T10:05:03.809Z,44.24
2023-03-11T10:07:48.092Z,44.01
2023-03-11T10:10:17.866Z,45.19
2023-03-11T10:12:49.785Z,45.62
2023-03-11T10:15:30.125Z,45.75
2023-03-11T10:18:22.975Z,45.29
2023-03-11T10:21:17.948Z,44.90
2023-03-11T10:24:07.070Z,44.45
2023-03-11T10:26:38.018Z,44.22
2023-03-11T10:29:13.268Z,43.70
2023-03-11T10:31:54.941Z,44.43
2023-03-11T10:34:27.472Z,44.40
2023-03-11T10:37:04.061Z,44.03
2023-03-11T10:39:34.548Z,44.50
2023-03-11T10:42:15.387Z,44.74
2023-03-11T10:44:43.552Z,44.87
2023-03-11T10:47:25.444Z,44.25
2023-03-11T10:49:53.002Z,45.48
2023-03-11T10:52:23.495Z,45.26
2023-03-11T10:55:02.968Z,44.50
2023-03-11T10:57:36.036Z,43.44
2023-03-11T11:00:17.456Z,43.81
2023-03-11T11:02:57.280Z,43.80
2023-03-11T11:05:32.905Z,43.50
2023-03-11T11:08:16.043Z,43.14
2023-03-11T11:11:03.085Z,43.15
2023-03-11T11:13:34.945Z,42.95
2023-03-11T11:16:21.239Z,42.54
2023-03-11T11:19:02.791Z,42.11
2023-03-11T11:21:48.989Z,42.13
2023-03-11T11:24:29.084Z,42.34
2023-03-11T11:27:18.159Z,42.47
2023-03-11T11:29:46.819Z,41.61
2023-03-11T11:32:24.068Z,41.22
2023-03-11T11:35:02.529Z,42.09
2023-03-11T11:37:35.217Z,42.21
2023-03-11T11:40:11.724Z,41.64
2023-03-11T11:42:44.040Z,41.44
2023-03-11T11:45:29.551Z,41.23
2023-03-11T11:48:05.733Z,40.72
2023-03-11T11:50:52.906Z,41.24
2023-03-11T11:53:50.485Z,40.79
2023-03-11T11:56:19.100Z,40.79
2023-03-11T11:58:46.687Z,40.41
2023-03-11T12:01:28.752Z,40.32
2023-03-11T12:04:02.398Z,40.43
2023-03-11T12:06:47.826Z,40.07
2023-03-11T12:09:24.480Z,40.27
2023-03-11T12:12:02.893Z,40.16
2023-03-11T12:14:47.110Z,41.19
2023-03-11T12:17:20.918Z,41.06
2023-03-11T12:19:54.885Z,40.46
2023-03-11T12:22:46.746Z,40.33
2023-03-11T12:25:22.453Z,40.36
2023-03-11T12:28:16.137Z,40.04
2023-03-11T12:30:51.038Z,39.94
2023-03-11T12:33:34.373Z,39.89
2023-03-11T12:36:03.980Z,39.86
2023-03-11T12:38:35.888Z,39.40
2023-03-11T12:41:15.543Z,39.43
2023-03-11T12:43:42.708Z,39.15
2023-03-11T12:46:14.970Z,39.36
2023-03-11T12:49:09.462Z,39.29
2023-03-11T12:51:37.838Z,39.25
2023-03-11T12:54:32.020Z,39.17
2023-03-11T12:57:22.532Z,39.08
2023-03-11T13:00:25.082Z,38.71
2023-03-11T13:03:18.826Z,38.65
2023-03-11T13:06:23.168Z,39.20
2023-03-11T13:08:57.748Z,38.64
2023-03-11T13:11:34.632Z,38.69
2023-03-11T13:14:17.251Z,38.44
2023-03-11T13:16:48.937Z,38.33
2023-03-11T13:19:37.315Z,38.80
2023-03-11T13:22:06.584Z,38.07
2023-03-11T13:24:35.933Z,38.41
2023-03-11T13:27:21.003Z,38.15
2023-03-11T13:29:57.833Z,38.40
2023-03-11T13:32:31.173Z,38.34
2023-03-11T13:35:16.732Z,38.25
2023-03-11T13:38:07.176Z,38.19
2023-03-11T13:40:39.237Z,38.83
2023-03-11T13:43:11.574Z,38.55
2023-03-11T13:45:39.136Z,38.52
2023-03-11T13:48:25.291Z,38.95
2023-03-11T13:50:59.186Z,38.79
2023-03-11T13:53:33.923Z,38.87
2023-03-11T13:56:01.321Z,39.11
2023-03-11T13:58:29.352Z,38.76
2023-03-11T14:01:02.086Z,39.00
2023-03-11T14:03:40.705Z,38.72
2023-03-11T14:06:11.966Z,39.09
2023-03-11T14:08:43.559Z,39.33
2023-03-11T14:11:10.711Z,39.31
2023-03-11T14:13:45.298Z,39.32
2023-03-11T14:16:19.414Z,39.29
2023-03-11T14:18:46.932Z,39.34
2023-03-11T14:21:17.336Z,39.27
2023-03-11T14:23:50.949Z,39.59
2023-03-11T14:26:20.142Z,39.36
2023-03-11T14:28:51.725Z,39.22
2023-03-11T14:31:37.335Z,39.54
2023-03-11T14:34:21.022Z,39.43
2023-03-11T14:36:54.173Z,39.55
2023-03-11T14:39:38.776Z,39.63
2023-03-11T14:42:47.190Z,39.93
2023-03-11T14:45:19.655Z,39.99
2023-03-11T14:48:10.948Z,40.32
2023-03-11T14:50:39.067Z,40.32
2023-03-11T14:53:26.771Z,40.59
2023-03-11T14:56:06.965Z,40.81
2023-03-11T14:58:40.864Z,41.41
2023-03-11T15:01:11.322Z,41.46
2023-03-11T15:03:51.631Z,41.86
2023-03-11T15:06:29.889Z,41.89
2023-03-11T15:09:10.441Z,42.05
2023-03-11T15:12:29.348Z,42.28
2023-03-11T15:14:57.878Z,43.24
2023-03-11T15:17:37.783Z,43.72
2023-03-11T15:21:07.859Z,43.67
2023-03-11T15:23:37.843Z,44.05
2023-03-11T15:26:07.022Z,43.89
2023-03-11T15:28:54.187Z,43.86
2023-03-11T15:31:24.979Z,43.66
2023-03-11T15:34:35.525Z,43.48
2023-03-11T15:37:25.782Z,43.49
2023-03-11T15:40:01.030Z,43.27
2023-03-11T15:42:31.772Z,43.46
2023-03-11T15:45:18.689Z,43.70
2023-03-11T15:47:48.791Z,43.71
2023-03-11T15:50:27.302Z,43.78
2023-03-11T15:52:57.774Z,43.78
2023-03-11T15:55:27.279Z,43.81
2023-03-11T15:58:08.210Z,44.62
2023-03-11T16:00:36.657Z,44.43
2023-03-11T16:03:04.393Z,44.50
2023-03-11T16:05:31.515Z,44.62
2023-03-11T16:07:58.746Z,44.62
2023-03-11T16:10:28.938Z,44.96
2023-03-11T16:12:57.130Z,45.19
2023-03-11T16:15:31.635Z,45.15
2023-03-11T16:18:04.315Z,45.04
2023-03-11T16:20:37.935Z,45.41
2023-03-11T16:23:08.144Z,45.47
2023-03-11T16:25:39.839Z,46.19
2023-03-11T16:28:11.176Z,45.89
2023-03-11T16:30:38.566Z,45.79
2023-03-11T16:33:05.800Z,45.76
2023-03-11T16:35:33.552Z,45.70
2023-03-11T16:38:01.022Z,46.10
2023-03-11T16:40:29.381Z,46.22
2023-03-11T16:43:03.156Z,46.51
2023-03-11T16:45:33.023Z,46.09
2023-03-11T16:48:00.174Z,47.03
2023-03-11T16:50:27.565Z,47.19
2023-03-11T16:52:56.047Z,47.43
2023-03-11T16:55:24.663Z,47.57
2023-03-11T16:57:56.184Z,47.63
2023-03-11T17:00:25.178Z,48.06
2023-03-11T17:02:58.196Z,48.03
2023-03-11T17:05:28.087Z,48.04
2023-03-11T17:08:00.483Z,47.99
2023-03-11T17:10:28.565Z,48.15
2023-03-11T17:12:56.121Z,48.33
2023-03-11T17:15:23.370Z,48.86
2023-03-11T17:17:51.556Z,48.69
2023-03-11T17:20:21.690Z,49.08
2023-03-11T17:22:49.443Z,49.05
2023-03-11T17:25:16.968Z,49.57
2023-03-11T17:27:46.181Z,49.54
2023-03-11T17:30:19.414Z,50.15
2023-03-11T17:32:51.810Z,49.84
2023-03-11T17:35:20.001Z,49.81
2023-03-11T17:37:47.152Z,49.91
2023-03-11T17:40:14.405Z,49.61
2023-03-11T17:42:41.652Z,49.83
2023-03-11T17:45:09.431Z,50.46
2023-03-11T17:47:36.875Z,50.79
2023-03-11T17:50:05.352Z,50.60
2023-03-11T17:52:41.879Z,50.26
2023-03-11T17:55:10.247Z,50.45
2023-03-11T17:57:45.125Z,50.51
2023-03-11T18:00:15.096Z,50.33
2023-03-11T18:02:42.681Z,50.21
2023-03-11T18:05:09.969Z,50.27
2023-03-11T18:07:39.336Z,50.39
2023-03-11T18:10:08.422Z,50.57
2023-03-11T18:12:35.897Z,50.60
2023-03-11T18:15:06.292Z,50.24
2023-03-11T18:17:37.930Z,50.59
2023-03-11T18:20:09.360Z,50.62
2023-03-11T18:22:42.004Z,50.50
2023-03-11T18:25:13.881Z,50.39
2023-03-11T18:27:54.092Z,50.50
2023-03-11T18:30:39.502Z,50.48
2023-03-11T18:33:06.837Z,50.20
2023-03-11T18:35:36.315Z,50.45
2023-03-11T18:38:03.737Z,50.07
2023-03-11T18:40:31.885Z,50.02
2023-03-11T18:42:59.138Z,50.32
2023-03-11T18:45:26.423Z,50.10
2023-03-11T18:47:54.421Z,50.23
2023-03-11T18:50:21.766Z,49.89
2023-03-11T18:52:52.933Z,49.81
2023-03-11T18:55:20.166Z,49.77
2023-03-11T18:57:49.786Z,50.12
2023-03-11T19:00:22.472Z,49.81
2023-03-11T19:02:54.205Z,50.01
2023-03-11T19:05:22.128Z,49.72
2023-03-11T19:07:50.591Z,49.33
2023-03-11T19:10:20.190Z,49.27
2023-03-11T19:12:47.427Z,49.53
2023-03-11T19:15:17.147Z,49.50
2023-03-11T19:17:46.630Z,49.60
2023-03-11T19:20:19.280Z,49.44
2023-03-11T19:22:46.791Z,49.76
2023-03-11T19:28:01.630Z,49.94
2023-03-11T19:30:30.257Z,50.10
2023-03-11T19:32:58.082Z,50.01
2023-03-11T19:35:26.214Z,50.16
2023-03-11T19:37:57.116Z,50.51
2023-03-11T19:40:24.578Z,50.78
2023-03-11T19:42:52.714Z,50.84
2023-03-11T19:45:19.857Z,50.85
2023-03-11T19:47:50.765Z,51.03
2023-03-11T19:50:20.335Z,51.03
2023-03-11T19:52:49.834Z,51.02
2023-03-11T19:55:17.247Z,50.85
2023-03-11T19:57:44.570Z,51.12
2023-03-11T20:00:43.828Z,51.13
2023-03-11T20:03:13.059Z,51.02
2023-03-11T20:05:44.348Z,51.00
2023-03-11T20:08:16.890Z,50.91
2023-03-11T20:10:47.222Z,51.03
2023-03-11T20:13:15.754Z,50.92
2023-03-11T20:15:43.138Z,50.95
2023-03-11T20:18:10.401Z,51.12
2023-03-11T20:20:39.738Z,50.88
2023-03-11T20:23:07.017Z,50.74
2023-03-11T20:25:35.060Z,50.82
2023-03-11T20:28:02.639Z,50.60
2023-03-11T20:30:30.052Z,51.34
2023-03-11T20:32:57.588Z,51.12
2023-03-11T20:35:24.805Z,50.96
2023-03-11T20:37:52.111Z,50.79
2023-03-11T20:40:22.127Z,50.79
2023-03-11T20:42:49.499Z,50.52
2023-03-11T20:45:22.328Z,50.53
2023-03-11T20:47:53.671Z,49.97
2023-03-11T20:50:22.330Z,50.18
2023-03-11T20:52:51.281Z,50.38
2023-03-11T20:55:18.809Z,50.16
2023-03-11T20:57:46.303Z,50.42
2023-03-11T21:00:14.104Z,50.34
2023-03-11T21:02:43.665Z,50.22
2023-03-11T21:05:12.786Z,50.24
2023-03-11T21:07:40.708Z,49.92
2023-03-11T21:10:11.098Z,49.93
2023-03-11T21:12:38.631Z,49.74
2023-03-11T21:15:07.176Z,49.72
2023-03-11T21:17:35.600Z,49.38
2023-03-11T21:20:06.454Z,49.55
2023-03-11T21:22:34.181Z,49.60
2023-03-11T21:25:01.487Z,49.40
2023-03-11T21:27:28.990Z,49.33
2023-03-11T21:29:57.295Z,49.21
2023-03-11T21:32:26.322Z,49.48
2023-03-11T21:34:58.912Z,49.42
2023-03-11T21:37:27.418Z,49.34
2023-03-11T21:39:55.401Z,48.99
2023-03-11T21:42:22.655Z,48.80
2023-03-11T21:44:51.798Z,48.94
2023-03-11T21:47:19.736Z,49.05
2023-03-11T21:49:47.038Z,49.06
2023-03-11T21:52:14.483Z,48.65
2023-03-11T21:54:41.641Z,49.36
2023-03-11T21:57:08.815Z,48.89
2023-03-11T21:59:36.105Z,48.86
2023-03-11T22:02:03.587Z,48.64
2023-03-11T22:04:31.845Z,48.53
2023-03-11T22:06:59.431Z,48.38
2023-03-11T22:09:26.876Z,48.40
2023-03-11T22:11:56.323Z,48.09
2023-03-11T22:14:24.982Z,48.09
2023-03-11T22:16:52.514Z,48.00
2023-03-11T22:19:20.164Z,47.73
2023-03-11T22:21:48.743Z,47.97
2023-03-11T22:24:16.454Z,47.87
2023-03-11T22:26:43.619Z,48.02
2023-03-11T22:29:13.329Z,48.09
2023-03-11T22:31:40.855Z,47.90
2023-03-11T22:34:08.019Z,47.82
2023-03-11T22:36:35.251Z,47.83
2023-03-11T22:39:04.650Z,47.46
2023-03-11T22:41:32.146Z,47.73
2023-03-11T22:43:59.427Z,47.65
2023-03-11T22:46:26.955Z,47.41
2023-03-11T22:48:55.660Z,47.51
2023-03-11T22:51:22.934Z,47.88
2023-03-11T22:53:50.090Z,47.83
2023-03-11T22:56:18.511Z,47.82
2023-03-11T22:58:46.109Z,46.87
2023-03-11T23:01:13.835Z,46.36
2023-03-11T23:03:43.218Z,46.17
2023-03-11T23:06:14.709Z,45.97
2023-03-11T23:08:42.336Z,45.95
2023-03-11T23:11:12.743Z,46.09
2023-03-11T23:13:40.581Z,45.63
2023-03-11T23:16:16.496Z,45.70
2023-03-11T23:18:45.222Z,45.95
2023-03-11T23:21:24.541Z,46.52
2023-03-11T23:23:53.978Z,46.48
2023-03-11T23:26:22.293Z,46.79
2023-03-11T23:28:51.306Z,47.17
2023-03-11T23:31:19.897Z,47.40
2023-03-11T23:33:47.107Z,47.42
2023-03-11T23:36:18.760Z,47.45
2023-03-11T23:38:47.022Z,46.85
2023-03-11T23:41:16.867Z,46.52
2023-03-11T23:43:44.092Z,46.90
2023-03-11T23:46:11.649Z,46.14
2023-03-11T23:48:41.910Z,46.22
2023-03-11T23:51:09.599Z,45.98
2023-03-11T23:53:37.331Z,46.00
2023-03-11T23:56:13.445Z,45.93
2023-03-11T23:58:41.879Z,46.11
